Time;durP1;ratioP1;P1;durP2;ratioP2;P2;SDS_P1;SDS_P2;PMS_P1;PMS_P2;Temp;Humidity;BMP_temperature;BMP_pressure;BME280_temperature;BME280_humidity;BME280_pressure;Samples;Min_cycle;Max_cycle;Signal;HPM_P1;HPM_P2
2021/12/18 00:02:14;;;;;;;12.85;6.00;;;6.60;99.90;;;;;;5111350;28;20047;-72
2021/12/18 00:04:43;;;;;;;13.57;5.53;;;6.70;99.90;;;;;;5111326;28;20106;-71
2021/12/18 00:07:12;;;;;;;15.45;6.15;;;6.70;99.90;;;;;;5112927;28;20063;-72
2021/12/18 00:09:40;;;;;;;12.98;5.43;;;6.60;99.90;;;;;;5111742;28;20051;-72
2021/12/18 00:12:10;;;;;;;11.50;5.03;;;6.60;99.90;;;;;;5094942;28;20061;-72
2021/12/18 00:14:38;;;;;;;13.00;5.18;;;6.60;99.90;;;;;;5112336;28;20051;-71
2021/12/18 00:17:08;;;;;;;10.90;4.25;;;6.60;99.90;;;;;;5109444;28;20044;-71
2021/12/18 00:19:37;;;;;;;8.45;4.35;;;6.60;99.90;;;;;;5094701;28;20107;-71
2021/12/18 00:22:06;;;;;;;11.63;5.32;;;6.60;99.90;;;;;;5111500;28;20055;-71
2021/12/18 00:24:35;;;;;;;13.60;5.83;;;6.60;99.90;;;;;;5111367;28;20052;-72
2021/12/18 00:27:05;;;;;;;13.35;5.35;;;6.60;99.90;;;;;;5111209;28;20131;-72
2021/12/18 00:29:33;;;;;;;9.68;3.88;;;6.60;99.90;;;;;;5090624;28;20140;-71
2021/12/18 00:32:02;;;;;;;9.77;4.43;;;6.60;99.90;;;;;;5111846;28;20079;-71
2021/12/18 00:34:32;;;;;;;14.23;4.90;;;6.70;99.90;;;;;;5111139;28;20043;-72
2021/12/18 00:37:01;;;;;;;12.00;5.10;;;6.60;99.90;;;;;;5110936;28;20051;-71
2021/12/18 00:39:32;;;;;;;12.65;4.50;;;6.70;99.90;;;;;;5110852;28;20083;-72
2021/12/18 00:42:09;;;;;;;12.57;4.95;;;6.70;99.90;;;;;;5108357;28;20048;-72
2021/12/18 00:44:38;;;;;;;12.38;4.97;;;6.70;99.90;;;;;;5110719;28;20070;-72
2021/12/18 00:47:07;;;;;;;10.40;4.82;;;6.80;99.90;;;;;;5116135;28;20044;-71
2021/12/18 00:50:02;;;;;;;11.47;4.57;;;6.80;99.90;;;;;;5090125;28;20566;-72
2021/12/18 00:52:32;;;;;;;12.02;5.22;;;6.80;99.90;;;;;;5089799;28;20040;-71
2021/12/18 00:55:01;;;;;;;12.13;4.53;;;6.70;99.90;;;;;;5090180;28;20533;-72
2021/12/18 00:57:30;;;;;;;13.93;5.72;;;6.80;99.90;;;;;;5090006;28;20048;-72
2021/12/18 01:00:01;;;;;;;13.13;5.40;;;6.80;99.90;;;;;;5090163;28;20060;-72
2021/12/18 01:02:30;;;;;;;14.43;5.57;;;6.70;99.90;;;;;;5083766;28;20048;-72
2021/12/18 01:04:59;;;;;;;12.38;5.93;;;6.70;99.90;;;;;;5067331;28;20059;-72
2021/12/18 01:07:29;;;;;;;12.82;5.88;;;6.70;99.90;;;;;;5085309;28;20052;-72
2021/12/18 01:10:05;;;;;;;15.18;6.18;;;6.70;99.90;;;;;;5091526;28;20051;-72
2021/12/18 01:12:38;;;;;;;11.48;5.00;;;6.70;99.90;;;;;;5094067;28;20106;-72
2021/12/18 01:15:17;;;;;;;12.60;5.00;;;6.70;99.90;;;;;;5090458;28;20405;-72
2021/12/18 01:23:22;;;;;;;13.20;5.13;;;6.60;99.90;;;;;;5094297;28;20055;-70
2021/12/18 01:28:42;;;;;;;13.23;5.23;;;6.50;99.90;;;;;;5095759;28;20058;-70
2021/12/18 01:31:16;;;;;;;9.10;4.43;;;6.60;99.90;;;;;;5093621;28;20565;-70
2021/12/18 01:33:44;;;;;;;15.48;5.75;;;6.60;99.90;;;;;;5104094;28;20397;-70
2021/12/18 01:36:15;;;;;;;12.98;5.40;;;6.60;99.90;;;;;;5076768;28;20113;-70
2021/12/18 01:38:45;;;;;;;12.68;5.15;;;6.60;99.90;;;;;;5093867;28;20055;-70
2021/12/18 01:41:16;;;;;;;14.37;6.17;;;6.60;99.90;;;;;;5094344;28;20056;-70
2021/12/18 01:46:40;;;;;;;13.00;5.47;;;6.60;99.90;;;;;;5099191;28;20118;-70
2021/12/18 01:52:15;;;;;;;14.77;5.47;;;6.60;99.90;;;;;;5108407;28;20100;-71
2021/12/18 01:54:46;;;;;;;14.50;5.87;;;6.60;99.90;;;;;;5113858;28;20385;-71
2021/12/18 01:57:16;;;;;;;13.80;5.80;;;6.50;99.90;;;;;;5105760;28;20086;-71
2021/12/18 01:59:48;;;;;;;13.63;6.20;;;6.50;99.90;;;;;;5113895;28;20121;-71
2021/12/18 02:02:16;;;;;;;15.65;5.63;;;6.50;99.90;;;;;;5113917;28;20048;-71
2021/12/18 02:04:51;;;;;;;9.73;5.15;;;6.50;99.90;;;;;;5094207;28;20084;-70
2021/12/18 02:07:20;;;;;;;13.80;5.30;;;6.50;99.90;;;;;;5112026;28;20124;-71
2021/12/18 02:10:01;;;;;;;14.45;5.90;;;6.50;99.90;;;;;;5113036;28;20052;-71
2021/12/18 02:12:37;;;;;;;10.18;4.50;;;6.60;99.90;;;;;;5114059;28;20044;-71
2021/12/18 02:20:45;;;;;;;12.37;5.27;;;6.60;99.90;;;;;;5113659;28;20052;-71
2021/12/18 02:23:14;;;;;;;10.77;4.68;;;6.60;99.90;;;;;;5113772;28;20051;-70
2021/12/18 02:25:46;;;;;;;15.05;5.75;;;6.60;99.90;;;;;;5113950;28;20051;-70
2021/12/18 02:28:18;;;;;;;12.52;5.72;;;6.60;99.90;;;;;;5113339;28;20048;-70
2021/12/18 02:30:49;;;;;;;9.90;4.47;;;6.50;99.90;;;;;;5096105;28;20047;-70
2021/12/18 02:33:17;;;;;;;11.83;5.20;;;6.50;99.90;;;;;;5113783;28;20043;-71
2021/12/18 02:35:47;;;;;;;13.38;6.97;;;6.50;99.90;;;;;;5112393;28;20084;-71
2021/12/18 02:38:21;;;;;;;15.27;5.97;;;6.50;99.90;;;;;;5110767;28;20663;-71
2021/12/18 02:43:46;;;;;;;12.52;5.45;;;6.50;99.90;;;;;;5093486;28;20058;-70
2021/12/18 02:46:19;;;;;;;12.30;5.13;;;6.50;99.90;;;;;;5117514;27;20055;-70
2021/12/18 02:48:51;;;;;;;14.93;6.32;;;6.50;99.90;;;;;;5112511;28;20062;-71
2021/12/18 02:51:21;;;;;;;13.27;6.40;;;6.50;99.90;;;;;;5112905;28;20444;-70
2021/12/18 02:53:51;;;;;;;11.95;5.20;;;6.50;99.90;;;;;;5112288;28;20047;-70
2021/12/18 02:56:23;;;;;;;13.63;5.63;;;6.50;99.90;;;;;;5112971;28;20056;-72
2021/12/18 02:58:54;;;;;;;15.23;5.43;;;6.50;99.90;;;;;;5113215;28;20138;-70
2021/12/18 03:01:24;;;;;;;14.98;5.85;;;6.50;99.90;;;;;;5112536;28;20063;-71
2021/12/18 03:03:55;;;;;;;11.27;5.05;;;6.50;99.90;;;;;;5112632;28;20537;-71
2021/12/18 03:06:31;;;;;;;15.13;5.90;;;6.60;99.90;;;;;;5111863;28;20513;-71
2021/12/18 03:09:18;;;;;;;15.40;6.05;;;6.60;99.90;;;;;;5112647;28;20060;-70
2021/12/18 03:25:56;;;;;;;13.37;5.10;;;6.80;99.90;;;;;;5109350;28;20039;-70
2021/12/18 03:28:25;;;;;;;13.63;5.60;;;6.70;99.90;;;;;;5112435;28;20047;-71
2021/12/18 03:30:55;;;;;;;12.68;5.15;;;6.70;99.90;;;;;;5112544;28;20048;-70
2021/12/18 03:33:48;;;;;;;12.02;5.47;;;6.70;99.90;;;;;;5106201;28;20048;-71
2021/12/18 03:36:18;;;;;;;12.68;5.50;;;6.60;99.90;;;;;;5105310;28;20048;-70
2021/12/18 03:38:48;;;;;;;17.13;6.17;;;6.60;99.90;;;;;;5111946;28;20054;-70
2021/12/18 03:41:17;;;;;;;14.93;5.93;;;6.60;99.90;;;;;;5112495;28;20081;-70
2021/12/18 03:44:11;;;;;;;14.40;5.80;;;6.70;99.90;;;;;;5112113;28;20071;-71
2021/12/18 03:46:40;;;;;;;13.02;6.47;;;6.70;99.90;;;;;;5112327;28;20047;-71
2021/12/18 03:49:09;;;;;;;17.45;6.47;;;6.70;99.90;;;;;;5094723;28;20093;-70
2021/12/18 03:51:37;;;;;;;12.17;5.40;;;6.70;99.90;;;;;;5111852;28;20052;-70
2021/12/18 03:54:07;;;;;;;15.07;5.55;;;6.60;99.90;;;;;;5111553;28;20496;-71
2021/12/18 03:56:36;;;;;;;11.25;5.00;;;6.60;99.90;;;;;;5105114;28;20056;-70
2021/12/18 03:59:04;;;;;;;15.60;5.65;;;6.60;99.90;;;;;;5105082;28;20043;-70
2021/12/18 04:01:33;;;;;;;16.33;6.22;;;6.70;99.90;;;;;;5104834;28;20405;-70
2021/12/18 04:04:01;;;;;;;16.17;5.97;;;6.70;99.90;;;;;;5105461;28;20052;-71
2021/12/18 04:06:32;;;;;;;13.80;5.50;;;6.70;99.90;;;;;;5111615;28;20047;-71
2021/12/18 04:09:01;;;;;;;13.30;5.70;;;6.70;99.90;;;;;;5111680;28;20521;-71
2021/12/18 04:11:30;;;;;;;14.75;5.53;;;6.70;99.90;;;;;;5094418;28;20054;-71
2021/12/18 04:14:02;;;;;;;13.68;5.57;;;6.70;99.90;;;;;;5111552;28;20051;-71
2021/12/18 04:16:55;;;;;;;14.77;5.87;;;6.60;99.90;;;;;;5109551;28;20059;-70
2021/12/18 04:19:24;;;;;;;12.98;5.25;;;6.60;99.90;;;;;;5109936;28;20128;-70
2021/12/18 04:21:55;;;;;;;20.70;6.57;;;6.50;99.90;;;;;;5111777;28;20040;-71
2021/12/18 04:24:24;;;;;;;12.50;5.40;;;6.50;99.90;;;;;;5094925;28;20465;-73
2021/12/18 04:26:54;;;;;;;14.80;5.90;;;6.50;99.90;;;;;;5095222;28;20055;-71
2021/12/18 04:29:23;;;;;;;17.33;6.97;;;6.50;99.90;;;;;;5111209;28;20474;-71
2021/12/18 04:32:16;;;;;;;14.63;6.93;;;6.50;99.90;;;;;;5111382;28;20051;-70
2021/12/18 04:34:45;;;;;;;12.80;5.78;;;6.50;99.90;;;;;;5108855;28;20379;-70
2021/12/18 04:37:38;;;;;;;20.17;5.60;;;6.50;99.90;;;;;;5111509;28;20478;-71
2021/12/18 04:40:08;;;;;;;13.43;5.35;;;6.50;99.90;;;;;;5111107;28;20056;-71
2021/12/18 04:42:38;;;;;;;12.27;5.03;;;6.50;99.90;;;;;;5104707;28;20514;-71
2021/12/18 04:45:08;;;;;;;10.88;4.78;;;6.60;99.90;;;;;;5111142;28;20043;-71
2021/12/18 04:47:36;;;;;;;13.48;5.85;;;6.60;99.90;;;;;;5097940;28;20058;-72
2021/12/18 04:50:06;;;;;;;14.38;5.70;;;6.60;99.90;;;;;;5114675;28;20104;-71
2021/12/18 04:52:35;;;;;;;15.18;5.55;;;6.70;99.90;;;;;;5114569;28;20142;-72
2021/12/18 04:55:05;;;;;;;9.63;4.83;;;6.70;99.90;;;;;;5114253;28;20044;-71
2021/12/18 04:57:34;;;;;;;11.80;4.80;;;6.70;99.90;;;;;;5113994;28;20047;-71
2021/12/18 05:00:06;;;;;;;15.68;6.38;;;6.70;99.90;;;;;;5114075;28;20464;-71
2021/12/18 05:02:38;;;;;;;15.60;5.60;;;6.60;99.90;;;;;;5113642;28;20557;-71
2021/12/18 05:05:08;;;;;;;14.10;5.53;;;6.60;99.90;;;;;;5114311;28;20055;-71
2021/12/18 05:07:37;;;;;;;12.90;4.70;;;6.60;99.90;;;;;;5114653;28;20054;-72
2021/12/18 05:10:07;;;;;;;13.55;4.97;;;6.60;99.90;;;;;;5114952;28;20047;-71
2021/12/18 05:12:37;;;;;;;15.48;6.10;;;6.60;99.90;;;;;;5095397;28;20054;-72
2021/12/18 05:15:07;;;;;;;12.45;5.57;;;6.60;99.90;;;;;;5112747;28;20057;-72
2021/12/18 05:17:36;;;;;;;15.75;5.78;;;6.60;99.90;;;;;;5093755;28;20513;-71
2021/12/18 05:20:06;;;;;;;13.87;6.07;;;6.60;99.90;;;;;;5115369;28;20111;-72
2021/12/18 05:22:35;;;;;;;15.60;5.20;;;6.60;99.90;;;;;;5115989;28;20050;-72
2021/12/18 05:25:03;;;;;;;17.98;5.63;;;6.60;99.90;;;;;;5115704;28;20157;-72
2021/12/18 05:27:32;;;;;;;15.45;6.80;;;6.60;99.90;;;;;;5098671;28;20055;-71
2021/12/18 05:30:01;;;;;;;14.75;6.28;;;6.60;99.90;;;;;;5115346;28;20043;-72
2021/12/18 05:32:31;;;;;;;11.17;5.20;;;6.60;99.90;;;;;;5116806;28;20423;-71
2021/12/18 05:35:00;;;;;;;11.48;4.40;;;6.50;99.90;;;;;;5116418;28;20096;-71
2021/12/18 05:37:44;;;;;;;11.20;5.25;;;6.50;99.90;;;;;;5109592;28;20047;-71
2021/12/18 05:40:13;;;;;;;14.52;6.03;;;6.50;99.90;;;;;;5116228;28;20138;-72
2021/12/18 05:42:41;;;;;;;14.02;6.03;;;6.50;99.90;;;;;;5116446;28;20043;-72
2021/12/18 05:45:10;;;;;;;16.43;5.27;;;6.50;99.90;;;;;;5134757;28;20047;-72
2021/12/18 05:47:43;;;;;;;11.43;5.65;;;6.40;99.90;;;;;;5119122;28;20149;-71
2021/12/18 05:50:13;;;;;;;15.38;5.72;;;6.50;99.90;;;;;;5091172;28;20240;-71
2021/12/18 05:52:45;;;;;;;14.13;5.32;;;6.50;99.90;;;;;;5113797;28;20061;-71
2021/12/18 05:55:15;;;;;;;14.40;6.32;;;6.40;99.90;;;;;;5094424;28;20051;-71
2021/12/18 05:57:46;;;;;;;14.00;6.53;;;6.40;99.90;;;;;;5107564;27;20036;-71
2021/12/18 06:00:15;;;;;;;15.38;5.45;;;6.40;99.90;;;;;;5128334;27;20054;-71
2021/12/18 06:02:45;;;;;;;12.85;5.82;;;6.40;99.90;;;;;;5110084;27;20047;-71
2021/12/18 06:05:13;;;;;;;11.88;5.18;;;6.40;99.90;;;;;;5117237;27;20047;-72
2021/12/18 06:07:53;;;;;;;14.02;5.68;;;6.40;99.90;;;;;;5112608;27;20051;-71
2021/12/18 06:10:27;;;;;;;11.33;4.43;;;6.40;99.90;;;;;;5111914;28;20046;-72
2021/12/18 06:12:57;;;;;;;12.45;5.68;;;6.40;99.90;;;;;;5099592;28;20097;-72
2021/12/18 06:15:25;;;;;;;16.02;6.35;;;6.40;99.90;;;;;;5103624;28;20141;-71
2021/12/18 06:17:56;;;;;;;13.10;5.45;;;6.40;99.90;;;;;;5088820;27;20050;-72
2021/12/18 06:20:25;;;;;;;12.80;5.25;;;6.40;99.90;;;;;;5101702;27;20051;-71
2021/12/18 06:22:54;;;;;;;11.13;5.70;;;6.40;99.90;;;;;;5119114;27;20051;-71
2021/12/18 06:25:23;;;;;;;13.27;5.65;;;6.40;99.90;;;;;;5106184;28;20056;-72
2021/12/18 06:44:30;;;;;;;16.65;5.43;;;6.40;99.90;;;;;;5010495;28;20030;-88
2021/12/18 06:47:09;;;;;;;18.48;5.88;;;6.20;99.90;;;;;;4996611;28;20056;-90
2021/12/18 06:49:39;;;;;;;9.45;4.43;;;6.10;99.90;;;;;;4979363;28;20074;-89
2021/12/18 06:52:09;;;;;;;13.18;5.18;;;6.10;99.90;;;;;;4978546;28;20049;-90
2021/12/18 06:54:38;;;;;;;9.07;4.87;;;6.10;99.90;;;;;;4978270;28;20124;-91
2021/12/18 06:57:09;;;;;;;12.18;5.65;;;6.20;99.90;;;;;;5010039;28;20046;-90
2021/12/18 06:59:38;;;;;;;12.32;6.22;;;6.30;99.90;;;;;;4987064;28;20049;-90
2021/12/18 07:02:16;;;;;;;12.90;5.32;;;6.30;99.90;;;;;;4991007;28;20046;-90
2021/12/18 07:05:29;;;;;;;11.30;4.22;;;6.30;99.90;;;;;;4979294;28;20042;-91
2021/12/18 07:07:59;;;;;;;8.43;4.53;;;6.30;99.90;;;;;;4997275;28;20050;-90
2021/12/18 07:10:31;;;;;;;13.60;5.65;;;6.30;99.90;;;;;;4992174;28;20041;-90
2021/12/18 07:13:01;;;;;;;9.65;4.72;;;6.40;99.90;;;;;;4976829;28;20049;-91
2021/12/18 07:15:33;;;;;;;12.48;5.18;;;6.40;99.90;;;;;;5024292;28;20056;-91
2021/12/18 07:18:08;;;;;;;9.93;4.82;;;6.50;99.90;;;;;;5026057;28;20053;-90
2021/12/18 07:20:37;;;;;;;10.53;5.83;;;6.50;99.90;;;;;;5013623;28;20061;-89
2021/12/18 07:23:07;;;;;;;10.23;5.25;;;6.50;99.90;;;;;;5019378;28;20408;-90
2021/12/18 07:25:43;;;;;;;10.60;5.35;;;6.50;99.90;;;;;;5021677;28;20048;-90
2021/12/18 07:29:03;;;;;;;10.75;4.50;;;6.60;99.90;;;;;;5020296;28;20522;-90
2021/12/18 07:32:33;;;;;;;8.63;4.18;;;6.50;99.90;;;;;;5033048;28;20434;-91
2021/12/18 07:35:14;;;;;;;10.53;4.83;;;6.50;99.90;;;;;;5041967;28;20053;-91
2021/12/18 07:42:05;;;;;;;14.18;4.93;;;6.40;99.90;;;;;;5044279;28;20360;-92
2021/12/18 07:44:42;;;;;;;8.13;4.63;;;6.40;99.90;;;;;;5030110;28;20140;-90
2021/12/18 07:47:23;;;;;;;14.63;4.68;;;6.40;99.90;;;;;;5027545;28;20139;-90
2021/12/18 07:50:02;;;;;;;11.43;4.60;;;6.40;99.90;;;;;;5038587;28;20065;-88
2021/12/18 07:52:31;;;;;;;9.38;4.47;;;6.40;99.90;;;;;;5038778;28;20103;-87
2021/12/18 07:55:06;;;;;;;9.98;4.70;;;6.40;99.90;;;;;;5040563;28;20435;-88
2021/12/18 07:57:46;;;;;;;9.57;4.25;;;6.40;99.90;;;;;;5049686;28;20076;-89
2021/12/18 08:00:23;;;;;;;8.98;4.35;;;6.50;99.90;;;;;;5031371;28;20475;-91
2021/12/18 08:03:01;;;;;;;7.73;3.47;;;6.60;99.90;;;;;;5051412;28;20048;-89
2021/12/18 08:05:41;;;;;;;8.10;3.78;;;6.60;99.90;;;;;;5029233;28;20085;-90
2021/12/18 08:08:43;;;;;;;8.10;4.13;;;6.70;99.90;;;;;;5040959;28;20522;-91
2021/12/18 08:11:42;;;;;;;8.15;3.80;;;6.70;99.90;;;;;;5033788;28;20457;-90
2021/12/18 08:14:32;;;;;;;10.55;4.38;;;6.50;99.90;;;;;;5032371;28;20127;-91
2021/12/18 08:17:15;;;;;;;8.90;4.13;;;6.50;99.90;;;;;;5031456;28;20052;-91
2021/12/18 08:19:51;;;;;;;10.82;4.30;;;6.50;99.90;;;;;;5025621;28;20048;-91
2021/12/18 08:22:23;;;;;;;13.43;3.90;;;6.60;99.90;;;;;;5025122;28;20045;-90
2021/12/18 08:24:53;;;;;;;8.98;3.80;;;6.60;99.90;;;;;;5023865;28;20491;-90
2021/12/18 08:27:22;;;;;;;10.60;4.80;;;6.60;99.90;;;;;;5043807;28;20081;-90
2021/12/18 08:29:52;;;;;;;9.47;3.77;;;6.60;99.90;;;;;;5030901;28;20074;-88
2021/12/18 08:32:25;;;;;;;6.13;3.03;;;6.60;99.90;;;;;;5022131;28;20071;-89
2021/12/18 08:34:53;;;;;;;8.10;4.13;;;6.60;99.90;;;;;;5040742;28;20060;-88
2021/12/18 08:37:24;;;;;;;9.02;4.50;;;6.60;99.90;;;;;;5045142;28;20049;-88
2021/12/18 08:39:56;;;;;;;10.18;4.25;;;6.60;99.90;;;;;;5045383;28;20052;-88
2021/12/18 08:42:26;;;;;;;9.70;4.37;;;6.60;99.90;;;;;;5042636;28;20056;-88
2021/12/18 08:44:55;;;;;;;8.25;3.67;;;6.60;99.90;;;;;;5039148;28;20049;-88
2021/12/18 08:47:50;;;;;;;6.88;3.38;;;6.70;99.90;;;;;;5037062;28;20051;-87
2021/12/18 08:50:21;;;;;;;13.48;4.30;;;6.60;99.90;;;;;;5044896;28;20080;-88
2021/12/18 08:52:51;;;;;;;11.88;4.18;;;6.60;99.90;;;;;;5035982;28;20056;-87
2021/12/18 08:55:23;;;;;;;8.97;3.77;;;6.50;99.90;;;;;;5045531;28;20099;-88
2021/12/18 08:57:52;;;;;;;7.90;3.65;;;6.50;99.90;;;;;;5044951;28;20045;-88
2021/12/18 09:00:24;;;;;;;9.13;3.90;;;6.50;99.90;;;;;;5034092;28;20049;-88
2021/12/18 09:02:57;;;;;;;9.57;3.60;;;6.50;99.90;;;;;;5013933;28;20038;-88
2021/12/18 09:05:28;;;;;;;9.23;4.18;;;6.50;99.90;;;;;;5016589;28;20053;-86
2021/12/18 09:08:00;;;;;;;11.90;4.60;;;6.40;99.90;;;;;;5014879;28;20080;-87
2021/12/18 09:10:29;;;;;;;12.32;4.78;;;6.50;99.90;;;;;;5031295;28;20569;-88
2021/12/18 09:12:59;;;;;;;9.43;4.15;;;6.60;99.90;;;;;;5042649;28;20144;-87
2021/12/18 09:15:31;;;;;;;14.30;5.03;;;6.60;99.90;;;;;;5035187;28;20048;-87
2021/12/18 09:18:05;;;;;;;9.93;4.72;;;6.70;99.90;;;;;;5031398;28;20080;-86
2021/12/18 09:20:35;;;;;;;11.67;4.83;;;6.70;99.90;;;;;;5029769;28;20045;-87
2021/12/18 09:23:07;;;;;;;7.35;3.00;;;6.80;99.90;;;;;;5035928;28;20045;-88
2021/12/18 09:25:37;;;;;;;11.85;4.63;;;6.80;99.90;;;;;;5036243;28;20056;-88
2021/12/18 09:31:23;;;;;;;8.30;4.25;;;6.80;99.90;;;;;;5036793;28;20053;-87
2021/12/18 09:34:50;;;;;;;8.90;3.40;;;6.80;99.90;;;;;;5044021;28;20376;-87
2021/12/18 09:37:26;;;;;;;8.88;4.05;;;6.90;99.90;;;;;;5041950;28;20083;-91
2021/12/18 09:40:19;;;;;;;10.25;4.05;;;6.90;99.90;;;;;;5054515;28;20049;-94
2021/12/18 09:43:47;;;;;;;11.75;4.95;;;6.90;99.90;;;;;;5036167;28;20049;-94
2021/12/18 09:50:43;;;;;;;8.90;3.33;;;6.90;99.90;;;;;;4995896;28;20128;-92
2021/12/18 09:53:32;;;;;;;13.25;4.38;;;6.80;99.90;;;;;;5005225;28;20053;-92
2021/12/18 09:56:17;;;;;;;9.82;4.03;;;6.80;99.90;;;;;;4996692;28;20078;-96
2021/12/18 09:58:54;;;;;;;12.30;4.95;;;6.80;99.90;;;;;;4983754;28;20080;-95
2021/12/18 10:01:23;;;;;;;11.20;5.03;;;6.90;99.90;;;;;;4978153;28;20504;-89
2021/12/18 10:03:59;;;;;;;8.73;4.13;;;6.90;99.90;;;;;;4995301;28;20042;-93
2021/12/18 10:06:52;;;;;;;11.65;4.82;;;6.90;99.90;;;;;;4987925;28;20054;-94
2021/12/18 10:10:00;;;;;;;10.63;5.00;;;6.90;99.90;;;;;;5009068;28;20057;-93
2021/12/18 10:13:06;;;;;;;14.00;5.60;;;6.90;99.90;;;;;;4981222;28;20073;-92
2021/12/18 10:15:45;;;;;;;10.55;4.72;;;6.80;99.90;;;;;;4982818;28;20058;-95
2021/12/18 10:18:33;;;;;;;11.00;4.77;;;6.80;99.90;;;;;;5021801;28;20049;-95
2021/12/18 10:21:19;;;;;;;13.88;5.75;;;6.80;99.90;;;;;;5028151;28;20049;-93
2021/12/18 10:23:55;;;;;;;10.05;4.28;;;6.90;99.90;;;;;;5028321;28;20041;-92
2021/12/18 10:26:59;;;;;;;8.52;3.78;;;6.80;99.90;;;;;;5037546;28;20038;-92
2021/12/18 10:29:33;;;;;;;12.40;5.03;;;6.80;99.90;;;;;;5037432;28;20089;-93
2021/12/18 10:32:11;;;;;;;10.77;4.40;;;6.80;99.90;;;;;;5044298;28;20361;-93
2021/12/18 10:34:44;;;;;;;9.73;4.10;;;6.90;99.90;;;;;;5025947;28;20045;-92
2021/12/18 10:37:20;;;;;;;11.25;4.55;;;6.90;99.90;;;;;;5044036;28;20144;-92
2021/12/18 10:40:06;;;;;;;14.48;5.07;;;6.90;99.90;;;;;;5031754;28;20053;-92
2021/12/18 10:42:46;;;;;;;12.90;5.55;;;6.90;99.90;;;;;;5026566;28;20049;-91
2021/12/18 10:45:23;;;;;;;13.73;5.30;;;6.90;99.90;;;;;;5041169;28;20463;-93
2021/12/18 10:47:56;;;;;;;8.95;4.13;;;6.90;99.90;;;;;;5039982;28;20049;-91
2021/12/18 10:50:34;;;;;;;13.40;5.20;;;6.90;99.90;;;;;;5023241;28;20057;-92
2021/12/18 10:53:07;;;;;;;9.00;4.43;;;6.90;99.90;;;;;;5025776;28;20094;-91
2021/12/18 10:55:45;;;;;;;8.73;4.00;;;6.90;99.90;;;;;;5027916;28;20132;-89
2021/12/18 10:58:18;;;;;;;8.30;3.67;;;6.90;99.90;;;;;;5027183;28;20057;-89
2021/12/18 11:00:54;;;;;;;9.77;3.80;;;6.90;99.90;;;;;;5037999;28;20052;-88
2021/12/18 11:03:33;;;;;;;13.55;5.65;;;7.00;99.90;;;;;;5023717;28;20072;-92
2021/12/18 11:06:23;;;;;;;10.50;4.28;;;6.90;99.90;;;;;;5020376;28;20053;-90
2021/12/18 11:09:04;;;;;;;9.48;3.88;;;7.00;99.90;;;;;;5035682;28;20048;-91
2021/12/18 11:14:47;;;;;;;9.63;3.78;;;7.10;99.90;;;;;;5021957;28;20124;-91
2021/12/18 11:17:18;;;;;;;8.65;3.80;;;7.10;99.90;;;;;;5022776;28;20049;-90
2021/12/18 11:19:48;;;;;;;7.60;3.78;;;7.10;99.90;;;;;;5028218;28;20107;-90
2021/12/18 11:22:18;;;;;;;7.50;2.92;;;7.00;99.90;;;;;;5025614;28;20053;-90
2021/12/18 11:25:18;;;;;;;7.77;3.27;;;6.90;99.90;;;;;;5037684;28;20053;-89
2021/12/18 11:30:52;;;;;;;6.75;2.78;;;7.00;99.90;;;;;;5038746;28;20506;-92
2021/12/18 11:33:21;;;;;;;7.82;2.72;;;7.00;99.90;;;;;;5020445;28;20055;-88
2021/12/18 11:35:51;;;;;;;6.57;2.60;;;6.90;99.90;;;;;;5039611;28;20061;-89
2021/12/18 11:38:21;;;;;;;8.40;2.77;;;6.90;99.90;;;;;;5051298;28;20111;-90
2021/12/18 11:40:50;;;;;;;8.23;2.88;;;6.90;99.90;;;;;;5028276;28;20132;-90
2021/12/18 11:43:37;;;;;;;8.18;3.53;;;7.00;99.90;;;;;;5044524;28;20068;-92
2021/12/18 11:46:30;;;;;;;10.68;4.60;;;7.00;99.90;;;;;;5040023;28;20080;-91
2021/12/18 11:49:02;;;;;;;7.05;3.40;;;7.10;99.90;;;;;;5042454;28;20043;-91
2021/12/18 11:51:33;;;;;;;8.23;3.43;;;7.10;99.90;;;;;;5043597;28;20053;-91
2021/12/18 11:54:03;;;;;;;11.35;3.53;;;7.10;99.90;;;;;;5029326;28;20049;-91
2021/12/18 11:56:51;;;;;;;10.55;3.80;;;7.20;99.90;;;;;;5028964;28;20053;-91
2021/12/18 11:59:38;;;;;;;8.80;3.38;;;7.20;99.90;;;;;;5043082;28;20064;-91
2021/12/18 12:02:11;;;;;;;10.68;4.10;;;7.10;99.90;;;;;;5025220;28;20464;-91
2021/12/18 12:05:10;;;;;;;9.13;3.63;;;7.10;99.90;;;;;;5040463;28;20128;-91
2021/12/18 12:07:42;;;;;;;11.02;3.75;;;7.10;99.90;;;;;;5057881;28;20164;-91
2021/12/18 12:10:21;;;;;;;12.95;5.20;;;7.10;99.90;;;;;;5044850;28;20044;-91
2021/12/18 12:12:54;;;;;;;10.07;4.93;;;7.10;99.90;;;;;;5029491;28;20045;-92
2021/12/18 12:15:29;;;;;;;7.95;3.08;;;7.20;99.90;;;;;;5021988;28;20460;-91
2021/12/18 12:18:00;;;;;;;10.60;3.97;;;7.10;99.90;;;;;;5020575;28;20052;-91
2021/12/18 12:20:36;;;;;;;13.50;4.03;;;7.10;99.90;;;;;;5046022;28;20053;-91
2021/12/18 12:23:07;;;;;;;12.05;3.97;;;7.10;99.90;;;;;;5044673;28;20059;-92
2021/12/18 12:26:01;;;;;;;8.65;3.50;;;7.10;99.90;;;;;;5028044;28;20064;-91
2021/12/18 12:28:33;;;;;;;7.90;4.20;;;7.20;99.90;;;;;;5026122;28;20392;-92
2021/12/18 12:31:15;;;;;;;8.07;2.97;;;7.20;99.90;;;;;;5044224;28;20064;-91
2021/12/18 12:34:26;;;;;;;7.47;3.28;;;7.10;99.90;;;;;;5042829;28;20057;-91
2021/12/18 12:37:37;;;;;;;10.70;4.75;;;7.00;99.90;;;;;;5049439;28;20071;-90
2021/12/18 12:40:15;;;;;;;8.90;4.10;;;7.00;99.90;;;;;;5030035;28;20052;-90
2021/12/18 12:43:14;;;;;;;7.72;3.22;;;7.00;99.90;;;;;;5035562;28;20164;-91
2021/12/18 12:45:46;;;;;;;6.80;3.17;;;7.00;99.90;;;;;;5047121;28;20499;-91
2021/12/18 12:48:22;;;;;;;7.30;3.45;;;7.00;99.90;;;;;;5041270;28;20404;-90
2021/12/18 12:50:59;;;;;;;8.77;3.08;;;7.00;99.90;;;;;;5026781;28;20053;-91
2021/12/18 12:53:50;;;;;;;11.23;4.55;;;7.00;99.90;;;;;;5029675;28;20044;-91
2021/12/18 12:56:21;;;;;;;9.27;4.68;;;7.00;99.90;;;;;;5021039;28;20054;-92
2021/12/18 12:59:24;;;;;;;12.13;4.13;;;7.10;99.90;;;;;;5022593;28;20048;-91
2021/12/18 13:01:56;;;;;;;9.30;4.65;;;7.10;99.90;;;;;;5030661;28;20045;-90
2021/12/18 13:04:29;;;;;;;12.63;5.20;;;7.10;99.90;;;;;;5048238;28;20063;-91
2021/12/18 13:07:26;;;;;;;11.48;4.65;;;7.20;99.90;;;;;;5029671;28;20041;-89
2021/12/18 13:10:12;;;;;;;9.55;4.10;;;7.20;99.90;;;;;;5032385;28;20069;-90
2021/12/18 13:12:53;;;;;;;10.40;4.63;;;7.20;99.90;;;;;;5030018;28;20100;-90
2021/12/18 13:15:27;;;;;;;11.20;4.13;;;7.10;99.90;;;;;;5039654;28;20254;-90
2021/12/18 13:18:06;;;;;;;10.73;4.88;;;7.10;99.90;;;;;;5029263;28;20151;-90
2021/12/18 13:20:43;;;;;;;9.98;3.83;;;7.20;99.90;;;;;;5035958;28;20135;-91
2021/12/18 13:23:18;;;;;;;10.70;4.72;;;7.20;99.90;;;;;;5052155;28;20108;-91
2021/12/18 13:25:53;;;;;;;11.00;4.33;;;7.10;99.90;;;;;;5047709;28;20052;-90
2021/12/18 13:28:23;;;;;;;11.98;5.30;;;7.10;99.90;;;;;;5035795;28;20048;-90
2021/12/18 13:31:26;;;;;;;9.90;5.00;;;7.10;99.90;;;;;;5025319;28;20503;-90
2021/12/18 13:34:10;;;;;;;8.45;3.95;;;7.20;99.90;;;;;;5018445;28;20122;-89
2021/12/18 13:36:59;;;;;;;8.68;3.83;;;7.00;99.90;;;;;;5039321;28;20150;-91
2021/12/18 13:39:30;;;;;;;8.57;3.97;;;7.00;99.90;;;;;;5052763;28;20049;-90
2021/12/18 13:42:17;;;;;;;12.07;4.82;;;7.10;99.90;;;;;;5035397;28;20052;-91
2021/12/18 13:48:28;;;;;;;9.27;4.45;;;7.10;99.90;;;;;;5039735;28;20041;-89
2021/12/18 13:54:25;;;;;;;10.00;3.47;;;7.00;99.90;;;;;;5047659;28;20133;-90
2021/12/18 13:57:33;;;;;;;10.32;5.00;;;7.00;99.90;;;;;;5024134;28;20130;-89
2021/12/18 14:04:05;;;;;;;9.18;3.47;;;7.00;99.90;;;;;;5032272;28;20079;-92
2021/12/18 14:07:03;;;;;;;7.72;3.22;;;6.90;99.90;;;;;;5044243;28;20060;-90
2021/12/18 14:09:43;;;;;;;8.47;3.30;;;6.90;99.90;;;;;;5040866;28;20095;-91
2021/12/18 14:12:21;;;;;;;11.60;4.28;;;6.80;99.90;;;;;;5031953;28;20136;-89
2021/12/18 14:14:59;;;;;;;10.15;4.53;;;6.90;99.90;;;;;;5048504;28;20049;-89
2021/12/18 14:17:35;;;;;;;8.65;3.70;;;6.90;99.90;;;;;;5042905;28;20124;-88
2021/12/18 14:20:08;;;;;;;10.15;4.03;;;6.90;99.90;;;;;;5029263;28;20049;-89
2021/12/18 14:22:42;;;;;;;10.60;4.80;;;6.90;99.90;;;;;;5053321;28;20041;-88
2021/12/18 14:25:17;;;;;;;12.07;5.18;;;6.90;99.90;;;;;;5046272;28;20080;-88
2021/12/18 14:30:50;;;;;;;7.65;3.00;;;6.90;99.90;;;;;;5045228;28;20053;-88
2021/12/18 14:33:20;;;;;;;7.70;3.55;;;6.90;99.90;;;;;;5039695;28;20492;-88
2021/12/18 14:35:56;;;;;;;8.30;3.90;;;6.90;99.90;;;;;;5034342;28;20053;-88
2021/12/18 14:38:26;;;;;;;10.98;3.70;;;6.90;99.90;;;;;;5041346;28;20376;-88
2021/12/18 14:41:13;;;;;;;10.15;4.72;;;6.90;99.90;;;;;;5037427;28;20049;-88
2021/12/18 14:44:05;;;;;;;14.35;4.05;;;6.90;99.90;;;;;;5035572;28;20464;-86
2021/12/18 14:46:34;;;;;;;10.38;4.28;;;6.90;99.90;;;;;;5031274;28;20558;-88
2021/12/18 14:49:10;;;;;;;10.70;4.60;;;6.80;99.90;;;;;;5046467;28;20523;-88
2021/12/18 14:51:43;;;;;;;9.63;3.95;;;6.90;99.90;;;;;;5062117;28;20052;-87
2021/12/18 14:54:24;;;;;;;10.25;4.43;;;6.90;99.90;;;;;;5051788;28;20053;-87
2021/12/18 14:57:22;;;;;;;9.07;4.32;;;6.80;99.90;;;;;;5055204;28;20466;-87
2021/12/18 15:03:38;;;;;;;9.77;4.03;;;6.80;99.90;;;;;;5047522;28;20049;-87
2021/12/18 15:06:19;;;;;;;7.45;3.40;;;6.60;99.90;;;;;;5032073;28;20541;-87